createdAt,value
2019-04-16T00:01:49.496Z,19.32
2019-04-16T00:04:28.631Z,24.02
2019-04-16T00:07:01.624Z,23.30
2019-04-16T00:09:50.084Z,23.02
2019-04-16T00:12:22.610Z,21.68
2019-04-16T00:14:55.386Z,24.18
2019-04-16T00:17:23.616Z,24.35
2019-04-16T00:19:51.852Z,21.23
2019-04-16T00:22:36.753Z,21.68
2019-04-16T00:25:05.744Z,21.25
2019-04-16T00:27:33.989Z,21.93
2019-04-16T00:30:05.099Z,24.45
2019-04-16T00:32:32.211Z,25.72
2019-04-16T00:35:00.445Z,23.22
2019-04-16T00:37:28.684Z,21.17
2019-04-16T00:39:57.018Z,21.20
2019-04-16T00:42:25.529Z,23.45
2019-04-16T00:44:53.753Z,21.10
2019-04-16T00:47:21.994Z,23.42
2019-04-16T00:49:50.221Z,23.25
2019-04-16T00:52:18.461Z,22.45
2019-04-16T00:54:46.688Z,23.20
2019-04-16T00:57:17.780Z,20.82
2019-04-16T00:59:44.872Z,20.40
2019-04-16T01:02:13.138Z,23.30
2019-04-16T01:04:41.345Z,20.52
2019-04-16T01:07:09.590Z,20.35
2019-04-16T01:09:37.811Z,21.10
2019-04-16T01:12:06.068Z,22.73
2019-04-16T01:14:34.280Z,21.73
2019-04-16T01:17:04.840Z,23.73
2019-04-16T01:19:32.476Z,23.10
2019-04-16T01:22:00.892Z,21.35
2019-04-16T01:24:29.120Z,23.90
2019-04-16T01:26:58.376Z,21.90
2019-04-16T01:29:27.460Z,21.43
2019-04-16T01:32:00.251Z,22.95
2019-04-16T01:34:33.145Z,22.37
2019-04-16T01:37:03.020Z,20.17
2019-04-16T01:39:32.892Z,21.80
2019-04-16T01:42:01.137Z,23.22
2019-04-16T01:44:29.713Z,20.17
2019-04-16T01:46:58.103Z,19.77
2019-04-16T01:49:26.307Z,21.12
2019-04-16T01:51:54.550Z,21.85
2019-04-16T01:54:23.451Z,22.65
2019-04-16T01:56:51.814Z,20.52
2019-04-16T01:59:20.324Z,21.37
2019-04-16T02:01:48.564Z,25.10
2019-04-16T02:04:19.521Z,21.07
2019-04-16T02:06:46.756Z,22.75
2019-04-16T02:09:22.431Z,21.48
2019-04-16T02:11:44.936Z,23.20
2019-04-16T02:14:14.538Z,22.07
2019-04-16T02:16:43.124Z,23.87
2019-04-16T02:19:11.645Z,20.05
2019-04-16T02:21:41.495Z,21.68
2019-04-16T02:24:09.824Z,19.67
2019-04-16T02:26:38.054Z,21.30
2019-04-16T02:29:06.290Z,23.20
2019-04-16T02:31:34.506Z,22.05
2019-04-16T02:34:02.841Z,22.37
2019-04-16T02:36:31.430Z,25.12
2019-04-16T02:38:59.670Z,21.20
2019-04-16T02:41:27.891Z,24.65
2019-04-16T02:43:56.177Z,22.20
2019-04-16T02:46:30.898Z,24.77
2019-04-16T02:48:54.522Z,22.10
2019-04-16T02:51:27.047Z,24.12
2019-04-16T02:53:58.872Z,25.60
2019-04-16T02:56:44.401Z,21.35
2019-04-16T02:59:14.278Z,23.12
2019-04-16T03:01:56.194Z,22.82
2019-04-16T03:04:41.056Z,23.65
2019-04-16T03:07:09.295Z,23.12
2019-04-16T03:09:40.216Z,22.02
2019-04-16T03:12:07.484Z,22.58
2019-04-16T03:14:35.749Z,22.10
2019-04-16T03:17:14.763Z,21.87
2019-04-16T03:19:44.655Z,24.60
2019-04-16T03:22:12.914Z,24.20
2019-04-16T03:24:41.188Z,23.38
2019-04-16T03:27:10.042Z,24.82
2019-04-16T03:29:38.360Z,23.18
2019-04-16T03:32:06.597Z,23.90
2019-04-16T03:34:34.811Z,26.82
2019-04-16T03:37:03.488Z,25.27
2019-04-16T03:39:31.964Z,23.67
2019-04-16T03:42:00.199Z,25.92
2019-04-16T03:44:28.445Z,25.45
2019-04-16T03:46:56.694Z,24.18
2019-04-16T03:49:27.770Z,24.27
2019-04-16T03:51:54.864Z,23.07
2019-04-16T03:54:23.247Z,23.20
2019-04-16T03:56:51.600Z,24.92
2019-04-16T03:59:19.831Z,24.70
2019-04-16T04:01:48.064Z,24.63
2019-04-16T04:04:16.290Z,23.02
2019-04-16T04:06:44.524Z,21.85
2019-04-16T04:09:12.757Z,22.40
2019-04-16T04:11:41.913Z,21.93
2019-04-16T04:14:10.460Z,26.25
2019-04-16T04:16:38.681Z,23.87
2019-04-16T04:19:06.924Z,28.30
2019-04-16T04:21:35.137Z,23.55
2019-04-16T04:24:03.369Z,24.05
2019-04-16T04:26:31.630Z,21.85
2019-04-16T04:29:00.153Z,25.25
2019-04-16T04:31:31.999Z,25.20
2019-04-16T04:33:58.336Z,22.25
2019-04-16T04:36:28.129Z,23.75
2019-04-16T04:38:56.522Z,24.30
2019-04-16T04:41:25.042Z,28.00
2019-04-16T04:43:53.336Z,26.07
2019-04-16T04:46:21.560Z,22.65
2019-04-16T04:48:55.004Z,23.07
2019-04-16T04:51:19.758Z,22.77
2019-04-16T04:53:50.343Z,23.07
2019-04-16T04:56:19.565Z,23.67
2019-04-16T04:58:48.276Z,28.90
2019-04-16T05:01:17.088Z,25.50
2019-04-16T05:03:53.353Z,26.48
2019-04-16T05:06:26.778Z,25.50
2019-04-16T05:08:53.201Z,23.92
2019-04-16T05:11:21.430Z,27.05
2019-04-16T05:13:50.025Z,29.37
2019-04-16T05:16:18.402Z,27.62
2019-04-16T05:18:46.652Z,25.50
2019-04-16T05:21:17.805Z,24.10
2019-04-16T05:23:44.830Z,25.88
2019-04-16T05:26:13.055Z,23.18
2019-04-16T05:28:44.694Z,24.90
2019-04-16T05:31:11.236Z,24.52
2019-04-16T05:33:39.472Z,23.20
2019-04-16T05:36:07.712Z,26.15
2019-04-16T05:38:35.952Z,27.60
2019-04-16T05:41:13.129Z,33.13
2019-04-16T05:43:34.149Z,37.80
2019-04-16T05:46:02.376Z,26.07
2019-04-16T05:48:30.603Z,22.20
2019-04-16T05:50:59.974Z,23.83
2019-04-16T05:53:28.912Z,42.45
2019-04-16T05:56:17.210Z,37.30
2019-04-16T05:58:45.449Z,23.65
2019-04-16T06:01:27.384Z,24.52
2019-04-16T06:03:55.619Z,23.55
2019-04-16T06:06:23.879Z,25.20
2019-04-16T06:08:52.169Z,22.98
2019-04-16T06:11:28.074Z,25.30
2019-04-16T06:13:52.035Z,24.47
2019-04-16T06:16:30.798Z,24.98
2019-04-16T06:18:59.268Z,22.58
2019-04-16T06:21:35.117Z,23.87
2019-04-16T06:24:21.340Z,22.85
2019-04-16T06:26:54.405Z,23.27
2019-04-16T06:29:33.476Z,23.47
2019-04-16T06:32:12.605Z,23.20
2019-04-16T06:34:54.687Z,22.07
2019-04-16T06:37:27.954Z,25.82
2019-04-16T06:40:01.758Z,25.65
2019-04-16T06:42:38.673Z,25.92
2019-04-16T06:45:11.964Z,25.43
2019-04-16T06:47:50.974Z,29.00
2019-04-16T06:50:32.858Z,23.52
2019-04-16T06:53:19.234Z,25.30
2019-04-16T06:55:50.931Z,24.27
2019-04-16T06:58:20.980Z,27.07
2019-04-16T07:01:07.246Z,26.73
2019-04-16T07:03:49.304Z,24.07
2019-04-16T07:06:37.568Z,24.95
2019-04-16T07:09:08.541Z,28.38
2019-04-16T07:14:06.425Z,25.43
2019-04-16T07:16:35.003Z,26.97
2019-04-16T07:19:03.239Z,27.93
2019-04-16T07:21:31.472Z,26.42
2019-04-16T07:23:59.771Z,27.37
2019-04-16T07:26:28.131Z,28.60
2019-04-16T07:29:00.848Z,28.55
2019-04-16T07:31:36.580Z,28.42
2019-04-16T07:34:09.462Z,27.45
2019-04-16T07:36:51.493Z,29.82
2019-04-16T07:39:30.412Z,27.58
2019-04-16T07:42:15.714Z,29.55
2019-04-16T07:44:43.595Z,26.75
2019-04-16T07:47:20.008Z,27.20
2019-04-16T07:49:50.676Z,23.77
2019-04-16T07:52:21.101Z,25.60
2019-04-16T07:54:57.156Z,29.60
2019-04-16T07:57:25.396Z,27.37
2019-04-16T07:59:53.634Z,28.20
2019-04-16T08:02:22.417Z,26.75
2019-04-16T08:04:51.512Z,26.27
2019-04-16T08:07:20.602Z,26.82
2019-04-16T08:09:49.673Z,27.70
2019-04-16T08:12:29.960Z,25.05
2019-04-16T08:14:47.884Z,25.80
2019-04-16T08:17:16.128Z,24.12
2019-04-16T08:19:47.781Z,27.52
2019-04-16T08:22:15.838Z,27.62
2019-04-16T08:24:57.561Z,23.98
2019-04-16T08:27:21.822Z,28.00
2019-04-16T08:29:50.065Z,25.77
2019-04-16T08:32:18.288Z,26.23
2019-04-16T08:34:46.529Z,26.35
2019-04-16T08:37:14.769Z,26.45
2019-04-16T08:39:43.012Z,28.42
2019-04-16T08:42:11.241Z,30.05
2019-04-16T08:44:39.809Z,26.50
2019-04-16T08:47:11.476Z,29.27
2019-04-16T08:49:38.021Z,27.13
2019-04-16T08:52:09.951Z,25.45
2019-04-16T08:54:36.232Z,25.57
2019-04-16T08:57:04.455Z,26.97
2019-04-16T08:59:32.945Z,29.48
2019-04-16T09:02:01.280Z,24.40
2019-04-16T09:04:34.249Z,24.92
2019-04-16T09:07:10.255Z,25.20
2019-04-16T09:09:31.481Z,24.52
2019-04-16T09:12:01.925Z,23.85
2019-04-16T09:14:31.945Z,25.57
2019-04-16T09:17:01.812Z,24.02
2019-04-16T09:19:30.248Z,24.98
2019-04-16T09:21:58.717Z,23.57
2019-04-16T09:24:40.512Z,24.30
2019-04-16T09:27:15.133Z,24.65
2019-04-16T09:32:29.576Z,26.87
2019-04-16T09:35:19.818Z,28.05
2019-04-16T09:37:54.833Z,25.82
2019-04-16T09:40:27.606Z,25.50
2019-04-16T09:42:56.109Z,24.75
2019-04-16T09:45:25.219Z,25.35
2019-04-16T09:47:53.881Z,25.60
2019-04-16T09:50:22.221Z,22.80
2019-04-16T09:52:54.903Z,22.07
2019-04-16T09:55:20.453Z,20.77
2019-04-16T09:57:48.712Z,21.75
2019-04-16T10:00:20.481Z,21.35
2019-04-16T10:02:48.541Z,24.60
2019-04-16T10:05:16.953Z,23.07
2019-04-16T10:07:45.202Z,20.57
2019-04-16T10:10:13.424Z,22.17
2019-04-16T10:12:41.648Z,22.65
2019-04-16T10:15:09.918Z,22.95
2019-04-16T10:17:38.204Z,23.80
2019-04-16T10:20:06.428Z,26.45
2019-04-16T10:22:34.691Z,23.62
2019-04-16T10:25:07.278Z,23.02
2019-04-16T10:27:37.148Z,22.95
2019-04-16T10:30:07.805Z,23.12
2019-04-16T10:32:36.053Z,23.30
2019-04-16T10:35:05.374Z,24.47
2019-04-16T10:37:33.665Z,20.82
2019-04-16T10:40:06.492Z,20.72
2019-04-16T10:42:36.344Z,22.30
2019-04-16T10:45:23.718Z,19.32
2019-04-16T10:47:56.519Z,20.52
2019-04-16T10:50:32.418Z,20.10
2019-04-16T10:53:11.272Z,18.57
2019-04-16T10:55:44.202Z,17.00
2019-04-16T10:58:14.179Z,17.52
2019-04-16T11:00:47.069Z,16.93
2019-04-16T11:03:16.955Z,15.70
2019-04-16T11:05:56.840Z,16.93
2019-04-16T11:08:23.030Z,17.00
2019-04-16T11:10:51.324Z,16.48
2019-04-16T11:13:21.210Z,16.57
2019-04-16T11:15:49.505Z,16.00
2019-04-16T11:18:17.732Z,15.90
2019-04-16T11:20:45.988Z,17.10
2019-04-16T11:23:14.236Z,16.37
2019-04-16T11:25:42.537Z,15.53
2019-04-16T11:28:13.796Z,14.95
2019-04-16T11:30:42.382Z,14.25
2019-04-16T11:33:10.605Z,11.73
2019-04-16T11:35:38.891Z,14.73
2019-04-16T11:38:07.336Z,10.13
2019-04-16T11:40:35.767Z,8.85
2019-04-16T11:43:04.036Z,9.13
2019-04-16T11:45:32.279Z,9.70
2019-04-16T11:48:00.496Z,10.30
2019-04-16T11:50:28.763Z,9.60
2019-04-16T11:52:58.538Z,13.72
2019-04-16T11:55:27.062Z,13.53
2019-04-16T11:57:55.384Z,10.82
2019-04-16T12:00:31.542Z,12.45
2019-04-16T12:03:08.089Z,9.93
2019-04-16T12:05:38.065Z,11.55
2019-04-16T12:08:10.961Z,15.03
2019-04-16T12:10:40.955Z,12.82
2019-04-16T12:13:14.129Z,13.38
2019-04-16T12:15:50.129Z,11.22
2019-04-16T12:18:20.023Z,11.30
2019-04-16T12:20:49.952Z,11.65
2019-04-16T12:23:31.938Z,10.63
2019-04-16T12:26:10.985Z,12.47
2019-04-16T12:28:43.318Z,13.90
2019-04-16T12:31:16.844Z,10.88
2019-04-16T12:33:53.289Z,12.82
2019-04-16T12:36:32.325Z,11.40
2019-04-16T12:39:08.636Z,13.05
2019-04-16T12:41:54.839Z,16.60
2019-04-16T12:44:27.867Z,14.43
2019-04-16T12:47:06.753Z,16.70
2019-04-16T12:49:52.933Z,15.28
2019-04-16T12:52:25.738Z,17.60
2019-04-16T12:54:59.273Z,19.30
2019-04-16T12:57:29.692Z,18.57
2019-04-16T12:59:59.615Z,17.62
2019-04-16T13:02:32.488Z,20.57
2019-04-16T13:05:11.409Z,22.00
2019-04-16T13:07:50.318Z,20.40
2019-04-16T13:10:20.197Z,21.55
2019-04-16T13:12:50.076Z,22.02
2019-04-16T13:15:36.668Z,19.80
2019-04-16T13:18:12.282Z,21.05
2019-04-16T13:20:51.350Z,21.27
2019-04-16T13:23:27.500Z,23.85
2019-04-16T13:26:11.888Z,19.48
2019-04-16T13:28:36.713Z,25.82
2019-04-16T13:31:04.940Z,21.27
2019-04-16T13:33:33.168Z,21.75
2019-04-16T13:36:01.405Z,21.73
2019-04-16T13:38:31.272Z,22.25
2019-04-16T13:41:01.797Z,22.20
2019-04-16T13:43:33.779Z,22.40
2019-04-16T13:46:01.213Z,27.48
2019-04-16T13:48:42.377Z,26.65
2019-04-16T13:51:16.610Z,22.85
2019-04-16T13:53:43.588Z,21.90
2019-04-16T13:56:19.337Z,21.70
2019-04-16T13:58:56.165Z,24.50
2019-04-16T14:01:45.066Z,22.62
2019-04-16T14:04:12.192Z,22.50
2019-04-16T14:06:40.428Z,23.45
2019-04-16T14:09:09.025Z,25.10
2019-04-16T14:11:38.069Z,23.60
2019-04-16T14:14:07.639Z,21.73
2019-04-16T14:16:36.262Z,16.77
2019-04-16T14:19:06.028Z,14.20
2019-04-16T14:21:34.856Z,16.90
2019-04-16T14:24:03.085Z,17.25
2019-04-16T14:26:31.325Z,19.02
2019-04-16T14:28:59.548Z,20.88
2019-04-16T14:31:27.798Z,20.00
2019-04-16T14:33:57.674Z,19.45
2019-04-16T14:36:25.994Z,15.23
2019-04-16T14:39:12.080Z,14.70
2019-04-16T14:41:40.344Z,17.07
2019-04-16T14:44:10.212Z,14.55
2019-04-16T14:46:38.487Z,13.78
2019-04-16T14:49:06.767Z,14.68
2019-04-16T14:51:34.997Z,13.35
2019-04-16T14:54:10.805Z,16.25
2019-04-16T14:56:40.753Z,15.43
2019-04-16T14:59:10.637Z,14.35
2019-04-16T15:01:57.053Z,16.02
2019-04-16T15:04:29.968Z,17.00
2019-04-16T15:07:16.381Z,14.33
2019-04-16T15:10:01.783Z,17.65
2019-04-16T15:12:34.759Z,13.98
2019-04-16T15:15:01.585Z,14.45
2019-04-16T15:17:31.648Z,16.35
2019-04-16T15:20:20.120Z,13.40
2019-04-16T15:22:50.005Z,12.53
2019-04-16T15:25:19.885Z,14.15
2019-04-16T15:28:05.917Z,12.73
2019-04-16T15:30:35.804Z,15.50
2019-04-16T15:33:07.182Z,12.13
2019-04-16T15:35:46.711Z,11.93
2019-04-16T15:38:34.116Z,15.30
2019-04-16T15:41:20.409Z,12.25
2019-04-16T15:43:59.599Z,12.15
2019-04-16T15:46:46.305Z,14.60
2019-04-16T15:49:31.209Z,11.73
2019-04-16T15:52:01.089Z,25.02
2019-04-16T15:54:40.160Z,15.65
2019-04-16T15:57:26.644Z,13.65
2019-04-16T16:00:12.984Z,13.83
2019-04-16T16:02:59.178Z,12.78
2019-04-16T16:05:29.100Z,13.20
2019-04-16T16:08:01.972Z,12.47
2019-04-16T16:10:33.885Z,14.98
2019-04-16T16:13:02.116Z,15.28
2019-04-16T16:15:30.356Z,17.02
2019-04-16T16:17:58.585Z,13.28
2019-04-16T16:20:26.820Z,13.88
2019-04-16T16:22:58.171Z,15.38
2019-04-16T16:25:25.132Z,15.70
2019-04-16T16:27:53.356Z,15.45
2019-04-16T16:30:21.592Z,15.45
2019-04-16T16:32:49.815Z,16.42
2019-04-16T16:35:18.158Z,15.15
2019-04-16T16:37:46.481Z,14.93
2019-04-16T16:40:14.968Z,14.25
2019-04-16T16:42:44.429Z,12.78
2019-04-16T16:45:13.124Z,12.65
2019-04-16T16:47:41.389Z,12.25
2019-04-16T16:50:11.558Z,13.50
2019-04-16T16:52:44.566Z,11.28
2019-04-16T16:55:14.428Z,9.38
2019-04-16T16:57:44.281Z,9.70
2019-04-16T17:00:14.469Z,9.88
2019-04-16T17:02:44.673Z,10.73
2019-04-16T17:05:17.231Z,11.40
2019-04-16T17:07:45.732Z,10.55
2019-04-16T17:10:13.983Z,10.75
2019-04-16T17:12:42.284Z,10.93
2019-04-16T17:15:10.517Z,9.83
2019-04-16T17:17:38.757Z,14.18
2019-04-16T17:20:06.984Z,28.85
2019-04-16T17:22:35.224Z,45.33
2019-04-16T17:25:03.723Z,35.00
2019-04-16T17:27:31.977Z,14.25
2019-04-16T17:30:00.204Z,11.15
2019-04-16T17:32:28.920Z,9.43
2019-04-16T17:34:57.150Z,14.98
2019-04-16T17:37:27.799Z,17.73
2019-04-16T17:39:56.928Z,19.75
2019-04-16T17:42:26.827Z,17.20
2019-04-16T17:45:13.181Z,15.68
2019-04-16T17:47:57.823Z,12.30
2019-04-16T17:50:30.670Z,9.10
2019-04-16T17:53:00.671Z,16.62
2019-04-16T17:55:30.523Z,13.18
2019-04-16T17:58:03.350Z,7.72
2019-04-16T18:00:39.193Z,9.03
2019-04-16T18:03:27.509Z,8.10
2019-04-16T18:06:06.369Z,12.55
2019-04-16T18:08:48.514Z,14.07
2019-04-16T18:11:27.368Z,11.30
2019-04-16T18:14:06.662Z,8.93
2019-04-16T18:16:49.784Z,9.45
2019-04-16T18:19:18.510Z,11.60
2019-04-16T18:21:49.219Z,13.68
2019-04-16T18:24:27.749Z,12.05
2019-04-16T18:26:57.616Z,9.80
2019-04-16T18:29:32.863Z,9.90
2019-04-16T18:32:05.009Z,13.08
2019-04-16T18:34:40.207Z,11.55
2019-04-16T18:37:09.284Z,9.70
2019-04-16T18:39:39.144Z,9.50
2019-04-16T18:42:11.996Z,11.35
2019-04-16T18:44:58.316Z,11.38
2019-04-16T18:47:31.507Z,14.00
2019-04-16T18:50:04.604Z,13.58
2019-04-16T18:52:36.604Z,16.55
2019-04-16T18:55:03.126Z,18.80
2019-04-16T18:57:31.425Z,16.17
2019-04-16T18:59:59.641Z,15.63
2019-04-16T19:02:29.556Z,15.13
2019-04-16T19:04:57.784Z,15.83
2019-04-16T19:07:26.662Z,17.98
2019-04-16T19:09:54.881Z,15.85
2019-04-16T19:12:23.133Z,16.48
2019-04-16T19:14:51.356Z,15.32
2019-04-16T19:17:19.616Z,15.63
2019-04-16T19:19:47.848Z,18.55
2019-04-16T19:22:16.102Z,16.93
2019-04-16T19:24:44.344Z,17.20
2019-04-16T19:27:12.569Z,15.88
2019-04-16T19:29:42.862Z,15.75
2019-04-16T19:32:10.775Z,18.45
2019-04-16T19:34:41.309Z,19.92
2019-04-16T19:37:09.293Z,15.58
2019-04-16T19:39:37.541Z,15.60
2019-04-16T19:42:05.769Z,18.25
2019-04-16T19:44:39.274Z,16.55
2019-04-16T19:47:03.972Z,21.10
2019-04-16T19:49:32.516Z,17.23
2019-04-16T19:52:00.747Z,17.20
2019-04-16T19:54:31.702Z,16.97
2019-04-16T19:56:59.476Z,16.35
2019-04-16T19:59:27.880Z,17.27
2019-04-16T20:02:00.122Z,19.05
2019-04-16T20:04:26.589Z,15.80
2019-04-16T20:06:59.681Z,16.73
2019-04-16T20:09:25.225Z,17.10
2019-04-16T20:11:55.376Z,15.50
2019-04-16T20:14:23.739Z,15.30
2019-04-16T20:16:52.040Z,15.65
2019-04-16T20:19:20.497Z,13.65
2019-04-16T20:21:48.724Z,16.10
2019-04-16T20:24:16.975Z,14.00
2019-04-16T20:26:45.572Z,15.70
2019-04-16T20:29:14.201Z,13.28
2019-04-16T20:31:42.451Z,14.70
2019-04-16T20:34:12.429Z,15.38
2019-04-16T20:36:48.510Z,14.80
2019-04-16T20:39:16.805Z,16.40
2019-04-16T20:41:52.635Z,18.30
2019-04-16T20:44:16.868Z,15.35
2019-04-16T20:46:45.096Z,14.05
2019-04-16T20:49:16.570Z,13.95
2019-04-16T20:51:43.308Z,13.70
2019-04-16T20:54:13.759Z,14.43
2019-04-16T20:56:41.525Z,12.30
2019-04-16T20:59:10.065Z,12.80
2019-04-16T21:01:38.306Z,13.10
2019-04-16T21:04:06.904Z,12.13
2019-04-16T21:06:40.676Z,13.15
2019-04-16T21:09:06.795Z,13.30
2019-04-16T21:11:40.525Z,12.80
2019-04-16T21:14:05.017Z,12.03
2019-04-16T21:16:34.500Z,13.45
2019-04-16T21:19:03.100Z,12.03
2019-04-16T21:21:31.333Z,12.45
2019-04-16T21:23:59.588Z,11.83
2019-04-16T21:26:27.812Z,10.82
2019-04-16T21:29:02.435Z,13.40
2019-04-16T21:31:32.192Z,13.95
2019-04-16T21:34:02.077Z,14.27
2019-04-16T21:39:26.624Z,13.25
2019-04-16T21:41:58.062Z,13.32
2019-04-16T21:44:24.808Z,13.50
2019-04-16T21:46:55.265Z,14.07
2019-04-16T21:49:37.377Z,16.57
2019-04-16T21:52:08.179Z,20.77
2019-04-16T21:54:37.301Z,16.00
2019-04-16T21:57:05.549Z,15.68
2019-04-16T21:59:33.848Z,18.12
2019-04-16T22:02:05.377Z,15.95
2019-04-16T22:04:33.745Z,15.85
2019-04-16T22:07:01.973Z,14.25
2019-04-16T22:09:30.230Z,12.85
2019-04-16T22:11:58.819Z,13.05
2019-04-16T22:14:27.057Z,15.55
2019-04-16T22:16:55.285Z,12.30
2019-04-16T22:19:23.525Z,14.55
2019-04-16T22:21:51.764Z,12.93
2019-04-16T22:24:22.893Z,13.40
2019-04-16T22:26:49.976Z,11.57
2019-04-16T22:29:18.209Z,10.98
2019-04-16T22:31:46.432Z,12.73
2019-04-16T22:34:14.664Z,12.30
2019-04-16T22:36:43.196Z,11.75
2019-04-16T22:39:29.363Z,10.38
2019-04-16T22:42:04.788Z,11.40
2019-04-16T22:44:34.668Z,12.03
2019-04-16T22:47:13.572Z,12.63
2019-04-16T22:49:41.826Z,11.68
2019-04-16T22:52:12.232Z,13.15
2019-04-16T22:54:40.280Z,11.88
2019-04-16T22:57:10.167Z,12.60
2019-04-16T22:59:39.416Z,13.28
2019-04-16T23:02:10.113Z,11.95
2019-04-16T23:04:38.336Z,16.12
2019-04-16T23:07:07.774Z,12.93
2019-04-16T23:09:37.408Z,14.10
2019-04-16T23:12:05.653Z,12.70
2019-04-16T23:14:34.755Z,14.33
2019-04-16T23:17:04.172Z,13.68
2019-04-16T23:19:32.395Z,12.95
2019-04-16T23:22:00.632Z,11.70
2019-04-16T23:24:28.857Z,12.93
2019-04-16T23:26:57.342Z,11.38
2019-04-16T23:29:25.723Z,11.83
2019-04-16T23:31:56.051Z,15.25
2019-04-16T23:34:23.992Z,11.03
2019-04-16T23:36:52.485Z,10.10
2019-04-16T23:39:20.717Z,10.50
2019-04-16T23:41:49.003Z,10.40
2019-04-16T23:44:33.840Z,12.37
2019-04-16T23:47:11.163Z,9.48
2019-04-16T23:49:41.096Z,11.25
2019-04-16T23:52:19.956Z,11.45
2019-04-16T23:54:50.081Z,9.93
2019-04-16T23:57:21.653Z,8.93
